createdAt,value
2019-02-28T00:01:58.672Z,44.60
2019-02-28T00:04:31.980Z,44.80
2019-02-28T00:07:00.438Z,45.30
2019-02-28T00:09:30.371Z,45.50
2019-02-28T00:12:00.637Z,45.70
2019-02-28T00:14:30.550Z,45.80
2019-02-28T00:17:01.188Z,45.90
2019-02-28T00:19:31.058Z,46.10
2019-02-28T00:22:01.277Z,45.90
2019-02-28T00:24:31.148Z,46.00
2019-02-28T00:27:01.497Z,45.90
2019-02-28T00:29:33.754Z,46.90
2019-02-28T00:32:03.471Z,45.90
2019-02-28T00:34:36.358Z,46.00
2019-02-28T00:37:05.646Z,46.20
2019-02-28T00:39:35.683Z,46.60
2019-02-28T00:42:06.295Z,46.60
2019-02-28T00:44:38.916Z,46.90
2019-02-28T00:47:08.684Z,47.20
2019-02-28T00:50:34.762Z,47.50
2019-02-28T00:53:06.410Z,47.70
2019-02-28T00:55:36.487Z,48.00
2019-02-28T00:58:06.402Z,48.10
2019-02-28T01:00:38.063Z,48.60
2019-02-28T01:03:08.203Z,49.00
2019-02-28T01:05:38.078Z,48.90
2019-02-28T01:08:08.437Z,49.10
2019-02-28T01:10:39.432Z,49.20
2019-02-28T01:13:09.807Z,49.40
2019-02-28T01:15:44.495Z,49.80
2019-02-28T01:18:11.612Z,50.10
2019-02-28T01:20:43.949Z,49.90
2019-02-28T01:23:13.803Z,50.50
2019-02-28T01:25:43.578Z,50.80
2019-02-28T01:28:13.448Z,50.80
2019-02-28T01:30:43.346Z,50.80
2019-02-28T01:33:13.237Z,51.00
2019-02-28T01:35:43.167Z,51.20
2019-02-28T01:38:13.133Z,51.20
2019-02-28T01:40:42.992Z,51.60
2019-02-28T01:43:12.890Z,51.80
2019-02-28T01:45:44.227Z,52.20
2019-02-28T01:48:14.253Z,52.20
2019-02-28T01:50:44.130Z,52.20
2019-02-28T01:53:18.746Z,52.20
2019-02-28T01:55:45.974Z,52.30
2019-02-28T01:58:16.795Z,52.30
2019-02-28T02:00:47.258Z,52.30
2019-02-28T02:03:17.176Z,52.10
2019-02-28T02:05:48.300Z,51.90
2019-02-28T02:08:19.430Z,52.00
2019-02-28T02:10:56.019Z,52.30
2019-02-28T02:13:26.363Z,52.20
2019-02-28T02:15:56.538Z,52.20
2019-02-28T02:18:26.826Z,52.10
2019-02-28T02:20:57.436Z,52.10
2019-02-28T02:23:32.006Z,52.30
2019-02-28T02:26:02.277Z,52.50
2019-02-28T02:28:32.439Z,52.40
2019-02-28T02:31:02.616Z,52.70
2019-02-28T02:33:32.987Z,52.80
2019-02-28T02:36:03.150Z,53.00
2019-02-28T02:38:39.834Z,53.20
2019-02-28T02:41:05.480Z,53.50
2019-02-28T02:43:35.630Z,53.40
2019-02-28T02:46:06.181Z,53.60
2019-02-28T02:48:38.502Z,53.80
2019-02-28T02:51:30.588Z,53.80
2019-02-28T02:54:08.376Z,54.00
2019-02-28T02:56:41.999Z,54.70
2019-02-28T02:59:10.983Z,54.00
2019-02-28T03:01:42.207Z,54.00
2019-02-28T03:04:22.959Z,54.30
2019-02-28T03:06:55.474Z,54.50
2019-02-28T03:09:25.735Z,54.80
2019-02-28T03:12:16.456Z,55.20
2019-02-28T03:14:50.007Z,55.40
2019-02-28T03:17:46.386Z,55.90
2019-02-28T03:20:20.591Z,55.90
2019-02-28T03:22:50.344Z,55.80
2019-02-28T03:25:42.353Z,55.70
2019-02-28T03:28:14.022Z,55.80
2019-02-28T03:31:11.587Z,55.70
2019-02-28T03:33:30.829Z,55.60
2019-02-28T03:36:07.142Z,55.70
2019-02-28T03:38:37.442Z,55.70
2019-02-28T03:41:07.381Z,55.70
2019-02-28T03:43:42.659Z,56.10
2019-02-28T03:46:11.606Z,56.00
2019-02-28T03:48:41.857Z,56.10
2019-02-28T03:51:11.890Z,56.10
2019-02-28T03:53:43.049Z,56.00
2019-02-28T03:59:04.775Z,56.10
2019-02-28T04:01:45.653Z,56.20
2019-02-28T04:04:30.375Z,56.20
2019-02-28T04:07:24.872Z,56.20
2019-02-28T04:10:32.150Z,56.20
2019-02-28T04:12:59.253Z,56.00
2019-02-28T04:15:29.414Z,56.20
2019-02-28T04:18:06.686Z,56.20
2019-02-28T04:20:36.132Z,56.40
2019-02-28T04:23:09.798Z,56.40
2019-02-28T04:25:39.746Z,56.40
2019-02-28T04:28:17.237Z,56.60
2019-02-28T04:30:43.872Z,57.20
2019-02-28T04:33:13.561Z,56.80
2019-02-28T04:35:43.597Z,56.80
2019-02-28T04:38:14.594Z,56.80
2019-02-28T04:40:44.630Z,56.80
2019-02-28T04:43:14.656Z,56.80
2019-02-28T04:45:44.550Z,56.80
2019-02-28T04:48:14.701Z,56.70
2019-02-28T04:50:45.024Z,56.60
2019-02-28T04:53:15.032Z,56.60
2019-02-28T04:55:45.192Z,56.60
2019-02-28T04:58:15.326Z,56.70
2019-02-28T05:00:46.294Z,56.60
2019-02-28T05:03:16.365Z,56.60
2019-02-28T05:05:46.935Z,56.80
2019-02-28T05:08:17.637Z,56.90
2019-02-28T05:10:47.524Z,56.80
2019-02-28T05:13:17.769Z,56.90
2019-02-28T05:16:03.288Z,57.00
2019-02-28T05:18:43.864Z,57.40
2019-02-28T05:21:19.578Z,56.70
2019-02-28T05:24:07.661Z,56.60
2019-02-28T05:26:37.637Z,56.60
2019-02-28T05:29:07.817Z,56.40
2019-02-28T05:31:37.743Z,56.60
2019-02-28T05:34:07.657Z,56.60
2019-02-28T05:36:38.031Z,56.60
2019-02-28T05:39:08.902Z,56.60
2019-02-28T05:41:38.796Z,56.70
2019-02-28T05:44:08.731Z,56.50
2019-02-28T05:46:41.147Z,56.50
2019-02-28T05:49:11.136Z,56.40
2019-02-28T05:51:40.949Z,56.30
2019-02-28T05:54:15.887Z,56.40
2019-02-28T05:56:42.774Z,56.40
2019-02-28T05:59:12.952Z,56.40
2019-02-28T06:01:43.582Z,56.30
2019-02-28T06:04:14.972Z,56.40
2019-02-28T06:06:45.104Z,56.30
2019-02-28T06:09:15.151Z,56.40
2019-02-28T06:11:56.113Z,56.20
2019-02-28T06:14:27.545Z,56.40
2019-02-28T06:16:57.961Z,56.00
2019-02-28T06:19:30.265Z,56.00
2019-02-28T06:22:00.191Z,56.00
2019-02-28T06:24:50.371Z,55.70
2019-02-28T06:27:20.965Z,56.00
2019-02-28T06:29:57.291Z,56.00
2019-02-28T06:32:27.487Z,55.90
2019-02-28T06:34:59.845Z,55.80
2019-02-28T06:37:29.996Z,55.90
2019-02-28T06:40:00.930Z,55.90
2019-02-28T06:42:31.047Z,55.90
2019-02-28T06:45:02.703Z,55.90
2019-02-28T06:47:33.405Z,55.90
2019-02-28T06:50:03.867Z,55.90
2019-02-28T06:52:33.750Z,56.50
2019-02-28T06:55:04.101Z,55.90
2019-02-28T06:57:34.058Z,55.70
2019-02-28T07:00:05.122Z,55.90
2019-02-28T07:02:35.146Z,55.90
2019-02-28T07:05:05.421Z,55.90
2019-02-28T07:07:35.398Z,55.90
2019-02-28T07:10:09.668Z,56.00
2019-02-28T07:12:38.437Z,56.10
2019-02-28T07:15:08.755Z,56.30
2019-02-28T07:17:42.635Z,56.40
2019-02-28T07:20:12.656Z,56.40
2019-02-28T07:22:42.544Z,56.10
2019-02-28T07:25:13.824Z,55.80
2019-02-28T07:27:44.297Z,55.30
2019-02-28T07:30:18.720Z,55.20
2019-02-28T07:32:46.769Z,55.20
2019-02-28T07:35:16.813Z,55.10
2019-02-28T07:37:46.799Z,54.90
2019-02-28T07:40:17.482Z,55.00
2019-02-28T07:42:47.552Z,55.60
2019-02-28T07:45:17.530Z,54.90
2019-02-28T07:47:51.710Z,54.80
2019-02-28T07:50:38.857Z,54.70
2019-02-28T07:53:09.707Z,54.20
2019-02-28T07:55:39.776Z,54.10
2019-02-28T07:58:09.580Z,54.40
2019-02-28T08:00:39.462Z,53.60
2019-02-28T08:03:11.261Z,53.10
2019-02-28T08:05:41.685Z,52.80
2019-02-28T08:08:11.542Z,53.00
2019-02-28T08:10:41.456Z,53.00
2019-02-28T08:13:11.302Z,52.50
2019-02-28T08:15:41.106Z,52.00
2019-02-28T08:18:10.853Z,51.70
2019-02-28T08:20:42.218Z,51.50
2019-02-28T08:23:12.802Z,51.30
2019-02-28T08:25:43.522Z,51.00
2019-02-28T08:28:18.452Z,50.80
2019-02-28T08:30:55.013Z,50.40
2019-02-28T08:33:20.962Z,50.10
2019-02-28T08:35:50.934Z,49.90
2019-02-28T08:38:20.720Z,49.50
2019-02-28T08:40:51.603Z,49.30
2019-02-28T08:43:27.208Z,49.20
2019-02-28T08:45:53.494Z,48.90
2019-02-28T08:48:23.415Z,48.80
2019-02-28T08:50:55.766Z,48.60
2019-02-28T08:53:25.321Z,48.00
2019-02-28T08:55:55.327Z,47.40
2019-02-28T08:58:25.165Z,45.90
2019-02-28T09:00:55.147Z,45.50
2019-02-28T09:03:27.455Z,45.30
2019-02-28T09:05:56.843Z,45.00
2019-02-28T09:08:26.644Z,44.60
2019-02-28T09:10:56.622Z,44.50
2019-02-28T09:13:26.479Z,44.40
2019-02-28T09:15:56.513Z,44.40
2019-02-28T09:18:26.430Z,44.20
2019-02-28T09:20:56.242Z,43.90
2019-02-28T09:23:26.602Z,43.50
2019-02-28T09:25:57.621Z,43.10
2019-02-28T09:28:28.504Z,42.80
2019-02-28T09:31:01.311Z,42.30
2019-02-28T09:33:30.217Z,41.60
2019-02-28T09:36:00.113Z,41.20
2019-02-28T09:38:30.155Z,41.00
2019-02-28T09:41:01.405Z,41.10
2019-02-28T09:43:31.891Z,40.20
2019-02-28T09:46:01.889Z,40.00
2019-02-28T09:48:34.033Z,40.00
2019-02-28T09:51:03.627Z,39.30
2019-02-28T09:53:33.973Z,39.60
2019-02-28T09:56:08.833Z,39.70
2019-02-28T09:58:35.777Z,39.60
2019-02-28T10:01:05.759Z,39.60
2019-02-28T10:03:35.730Z,39.50
2019-02-28T10:06:05.644Z,39.70
2019-02-28T10:08:36.885Z,39.10
2019-02-28T10:11:07.373Z,37.60
2019-02-28T10:13:38.129Z,37.60
2019-02-28T10:16:08.119Z,37.70
2019-02-28T10:18:38.912Z,37.70
2019-02-28T10:21:09.828Z,37.70
2019-02-28T10:23:39.793Z,37.30
2019-02-28T10:26:09.737Z,37.30
2019-02-28T10:28:39.577Z,37.00
2019-02-28T10:31:09.482Z,36.90
2019-02-28T10:33:39.386Z,36.60
2019-02-28T10:36:12.898Z,36.70
2019-02-28T10:38:41.285Z,36.60
2019-02-28T10:41:11.404Z,36.30
2019-02-28T10:43:41.297Z,36.20
2019-02-28T10:46:13.329Z,35.70
2019-02-28T10:48:50.752Z,35.50
2019-02-28T10:51:14.855Z,34.60
2019-02-28T10:53:44.819Z,34.20
2019-02-28T10:56:14.661Z,33.70
2019-02-28T10:58:47.130Z,33.60
2019-02-28T11:01:17.334Z,33.40
2019-02-28T11:03:47.477Z,33.30
2019-02-28T11:06:17.359Z,32.50
2019-02-28T11:08:47.673Z,32.00
2019-02-28T11:11:18.270Z,32.10
2019-02-28T11:13:48.203Z,32.00
2019-02-28T11:16:20.495Z,31.50
2019-02-28T11:18:50.061Z,31.20
2019-02-28T11:21:20.755Z,31.30
2019-02-28T11:23:50.603Z,30.70
2019-02-28T11:26:20.522Z,29.90
2019-02-28T11:28:53.152Z,29.90
2019-02-28T11:31:23.224Z,29.90
2019-02-28T11:33:53.218Z,29.70
2019-02-28T11:36:23.932Z,29.50
2019-02-28T11:38:55.462Z,29.30
2019-02-28T11:41:25.448Z,29.10
2019-02-28T11:43:55.314Z,28.90
2019-02-28T11:46:25.212Z,29.00
2019-02-28T11:48:55.164Z,29.00
2019-02-28T11:51:27.643Z,28.50
2019-02-28T11:53:58.620Z,28.00
2019-02-28T11:56:29.449Z,27.90
2019-02-28T11:58:59.586Z,27.90
2019-02-28T12:01:29.589Z,27.80
2019-02-28T12:03:59.875Z,27.10
2019-02-28T12:06:29.743Z,26.90
2019-02-28T12:09:02.931Z,26.00
2019-02-28T12:11:33.496Z,25.60
2019-02-28T12:14:06.317Z,25.60
2019-02-28T12:16:36.491Z,25.50
2019-02-28T12:19:06.857Z,25.50
2019-02-28T12:21:37.946Z,25.60
2019-02-28T12:24:08.659Z,25.50
2019-02-28T12:26:38.511Z,25.50
2019-02-28T12:29:09.511Z,24.50
2019-02-28T12:31:40.483Z,24.10
2019-02-28T12:34:11.711Z,24.30
2019-02-28T12:36:50.236Z,24.10
2019-02-28T12:39:20.349Z,24.50
2019-02-28T12:41:50.208Z,24.90
2019-02-28T12:44:20.175Z,24.80
2019-02-28T12:46:50.151Z,25.40
2019-02-28T12:49:22.390Z,25.60
2019-02-28T12:51:52.552Z,25.60
2019-02-28T12:54:22.440Z,25.50
2019-02-28T12:56:52.338Z,25.50
2019-02-28T12:59:22.308Z,25.50
2019-02-28T13:01:52.249Z,25.50
2019-02-28T13:04:22.285Z,26.00
2019-02-28T13:06:55.591Z,26.30
2019-02-28T13:09:24.212Z,26.60
2019-02-28T13:11:54.169Z,26.90
2019-02-28T13:14:24.175Z,27.40
2019-02-28T13:16:54.588Z,27.70
2019-02-28T13:19:35.529Z,27.60
2019-02-28T13:22:05.503Z,28.00
2019-02-28T13:24:35.405Z,28.40
2019-02-28T13:27:09.875Z,28.50
2019-02-28T13:29:38.938Z,28.80
2019-02-28T13:32:08.907Z,29.50
2019-02-28T13:34:38.869Z,29.20
2019-02-28T13:37:09.067Z,29.50
2019-02-28T13:39:39.033Z,29.70
2019-02-28T13:42:09.081Z,29.60
2019-02-28T13:44:39.761Z,30.00
2019-02-28T13:47:10.707Z,30.40
2019-02-28T13:49:40.985Z,30.40
2019-02-28T13:52:19.103Z,30.50
2019-02-28T13:54:43.350Z,30.60
2019-02-28T13:57:13.698Z,30.80
2019-02-28T13:59:43.555Z,30.50
2019-02-28T14:02:14.176Z,30.60
2019-02-28T14:04:44.282Z,30.60
2019-02-28T14:07:16.676Z,30.70
2019-02-28T14:09:47.531Z,30.00
2019-02-28T14:12:20.774Z,30.10
2019-02-28T14:14:49.410Z,30.30
2019-02-28T14:17:19.853Z,30.80
2019-02-28T14:19:52.698Z,30.00
2019-02-28T14:22:22.536Z,30.00
2019-02-28T14:24:53.421Z,29.90
2019-02-28T14:27:25.023Z,29.90
2019-02-28T14:29:55.606Z,29.10
2019-02-28T14:32:25.747Z,29.60
2019-02-28T14:34:57.296Z,29.90
2019-02-28T14:37:28.199Z,29.90
2019-02-28T14:39:59.469Z,29.30
2019-02-28T14:42:29.362Z,29.00
2019-02-28T14:44:59.347Z,29.70
2019-02-28T14:47:29.611Z,29.00
2019-02-28T14:49:59.806Z,29.30
2019-02-28T14:52:29.753Z,29.10
2019-02-28T14:55:00.226Z,29.40
2019-02-28T14:57:30.492Z,29.30
2019-02-28T15:00:06.297Z,29.10
2019-02-28T15:02:32.533Z,29.30
2019-02-28T15:05:02.784Z,29.50
2019-02-28T15:07:35.273Z,29.70
2019-02-28T15:10:08.105Z,29.90
2019-02-28T15:12:38.582Z,30.10
2019-02-28T15:15:14.814Z,30.30
2019-02-28T15:17:44.499Z,30.30
2019-02-28T15:20:15.277Z,30.30
2019-02-28T15:22:45.197Z,30.40
2019-02-28T15:25:18.542Z,30.60
2019-02-28T15:27:49.203Z,30.60
2019-02-28T15:30:22.449Z,30.60
2019-02-28T15:32:54.405Z,30.90
2019-02-28T15:35:24.606Z,30.30
2019-02-28T15:37:54.607Z,29.80
2019-02-28T15:40:30.798Z,29.20
2019-02-28T15:43:00.938Z,29.60
2019-02-28T15:45:30.980Z,29.40
2019-02-28T15:48:01.071Z,29.60
2019-02-28T15:50:30.944Z,29.80
2019-02-28T15:53:01.402Z,30.10
2019-02-28T15:55:35.094Z,30.80
2019-02-28T15:58:05.882Z,33.00
2019-02-28T16:00:37.029Z,33.00
2019-02-28T16:03:07.059Z,33.70
2019-02-28T16:05:42.681Z,34.00
2019-02-28T16:08:10.612Z,34.60
2019-02-28T16:10:40.953Z,35.40
2019-02-28T16:13:10.992Z,36.10
2019-02-28T16:15:43.212Z,36.50
2019-02-28T16:18:13.156Z,36.90
2019-02-28T16:20:43.274Z,37.40
2019-02-28T16:23:13.296Z,37.90
2019-02-28T16:25:46.941Z,38.00
2019-02-28T16:28:15.267Z,38.10
2019-02-28T16:30:45.181Z,38.10
2019-02-28T16:33:15.231Z,38.30
2019-02-28T16:35:46.765Z,39.20
2019-02-28T16:38:17.259Z,40.30
2019-02-28T16:40:47.414Z,41.00
2019-02-28T16:43:20.895Z,41.10
2019-02-28T16:45:49.844Z,41.00
2019-02-28T16:48:19.927Z,41.70
2019-02-28T16:50:53.190Z,42.00
2019-02-28T16:53:23.843Z,42.30
2019-02-28T16:55:53.975Z,42.50
2019-02-28T16:58:23.952Z,42.70
2019-02-28T17:00:54.253Z,42.90
2019-02-28T17:03:24.245Z,42.70
2019-02-28T17:05:54.304Z,42.90
2019-02-28T17:08:26.216Z,43.20
2019-02-28T17:10:56.355Z,43.20
2019-02-28T17:13:40.771Z,43.20
2019-02-28T17:16:33.766Z,43.00
2019-02-28T17:19:08.663Z,43.20
2019-02-28T17:21:39.881Z,43.40
2019-02-28T17:24:12.196Z,43.30
2019-02-28T17:27:06.212Z,43.50
2019-02-28T17:29:48.329Z,42.90
2019-02-28T17:32:19.074Z,42.70
2019-02-28T17:34:50.172Z,42.70
2019-02-28T17:37:25.484Z,42.30
2019-02-28T17:39:52.328Z,42.50
2019-02-28T17:42:22.497Z,42.70
2019-02-28T17:45:18.030Z,41.90
2019-02-28T17:48:25.813Z,42.20
2019-02-28T17:51:38.243Z,42.40
2019-02-28T17:55:02.909Z,42.50
2019-02-28T17:58:06.920Z,43.00
2019-02-28T18:01:28.653Z,43.30
2019-02-28T18:05:00.811Z,43.50
2019-02-28T18:08:16.441Z,44.00
2019-02-28T18:11:54.789Z,44.60
2019-02-28T18:14:50.851Z,45.00
2019-02-28T18:18:15.636Z,45.30
2019-02-28T18:21:37.440Z,46.20
2019-02-28T18:24:41.161Z,46.90
2019-02-28T18:28:39.327Z,48.00
2019-02-28T18:31:13.285Z,47.90
2019-02-28T18:34:20.640Z,49.20
2019-02-28T18:36:51.767Z,49.60
2019-02-28T18:39:22.140Z,49.80
2019-02-28T18:41:52.533Z,50.50
2019-02-28T18:44:22.936Z,51.00
2019-02-28T18:46:53.126Z,51.20
2019-02-28T18:49:26.640Z,51.40
2019-02-28T18:51:55.380Z,51.60
2019-02-28T18:54:26.405Z,51.60
2019-02-28T18:56:56.553Z,51.80
2019-02-28T18:59:26.580Z,51.60
2019-02-28T19:01:56.508Z,51.60
2019-02-28T19:04:26.782Z,51.80
2019-02-28T19:06:56.937Z,51.70
2019-02-28T19:09:28.768Z,51.70
2019-02-28T19:12:02.606Z,51.80
2019-02-28T19:14:34.435Z,52.00
2019-02-28T19:17:04.371Z,52.20
2019-02-28T19:19:34.761Z,52.40
2019-02-28T19:22:04.702Z,52.50
2019-02-28T19:24:34.783Z,52.50
2019-02-28T19:27:05.122Z,52.70
2019-02-28T19:29:35.197Z,52.70
2019-02-28T19:32:05.145Z,52.80
2019-02-28T19:34:35.127Z,52.80
2019-02-28T19:37:05.217Z,52.80
2019-02-28T19:39:35.556Z,52.80
2019-02-28T19:42:05.656Z,52.90
2019-02-28T19:44:35.718Z,53.30
2019-02-28T19:47:05.824Z,53.10
2019-02-28T19:49:35.856Z,53.20
2019-02-28T19:52:05.866Z,53.30
2019-02-28T19:54:38.214Z,53.50
2019-02-28T19:57:09.234Z,53.60
2019-02-28T19:59:39.412Z,53.50
2019-02-28T20:02:09.578Z,53.40
2019-02-28T20:04:39.800Z,53.40
2019-02-28T20:07:21.336Z,53.00
2019-02-28T20:10:06.489Z,52.90
2019-02-28T20:12:36.426Z,52.90
2019-02-28T20:15:07.079Z,52.80
2019-02-28T20:17:39.462Z,52.60
2019-02-28T20:20:12.863Z,52.40
2019-02-28T20:22:43.149Z,52.00
2019-02-28T20:25:16.521Z,52.20
2019-02-28T20:27:49.215Z,52.00
2019-02-28T20:30:30.758Z,51.50
2019-02-28T20:33:01.514Z,51.50
2019-02-28T20:35:36.736Z,50.90
2019-02-28T20:41:53.663Z,50.50
2019-02-28T20:50:10.318Z,49.50
2019-02-28T20:53:05.496Z,49.10
2019-02-28T21:03:13.736Z,48.40
2019-02-28T21:06:04.745Z,48.30
2019-02-28T21:08:36.510Z,48.40
2019-02-28T21:11:46.422Z,48.10
2019-02-28T21:14:29.027Z,48.10
2019-02-28T21:18:01.751Z,48.00
2019-02-28T21:31:48.832Z,48.50
2019-02-28T21:34:51.512Z,48.50
2019-02-28T21:37:27.040Z,48.70
2019-02-28T21:53:24.785Z,49.20
2019-02-28T21:57:06.731Z,49.30
2019-02-28T21:59:39.274Z,49.40
2019-02-28T22:02:12.259Z,49.70
2019-02-28T22:04:45.232Z,50.00
2019-02-28T22:07:26.847Z,50.20
2019-02-28T22:09:57.234Z,50.40
2019-02-28T22:12:27.729Z,50.80
2019-02-28T22:15:03.755Z,51.20
2019-02-28T22:17:34.354Z,51.50
2019-02-28T22:20:04.681Z,51.90
2019-02-28T22:22:40.487Z,52.20
2019-02-28T22:25:11.684Z,52.30
2019-02-28T22:27:42.158Z,52.70
2019-02-28T22:30:49.669Z,52.90
2019-02-28T22:33:39.619Z,53.00
2019-02-28T22:36:14.672Z,53.30
2019-02-28T22:38:44.927Z,53.40
2019-02-28T22:41:15.484Z,53.40
2019-02-28T22:43:46.006Z,53.60
2019-02-28T22:46:19.201Z,53.90
2019-02-28T22:48:51.774Z,54.00
2019-02-28T22:51:23.564Z,54.40
2019-02-28T22:53:59.784Z,55.30
2019-02-28T22:56:30.427Z,55.30
2019-02-28T22:59:01.027Z,55.70
2019-02-28T23:01:32.182Z,56.40
2019-02-28T23:04:03.044Z,57.20
2019-02-28T23:06:39.214Z,57.70
2019-02-28T23:09:16.637Z,58.30
2019-02-28T23:11:47.124Z,58.90
2019-02-28T23:14:17.453Z,59.80
2019-02-28T23:16:50.718Z,60.40
2019-02-28T23:19:20.818Z,60.80
2019-02-28T23:21:50.918Z,61.30
2019-02-28T23:24:20.870Z,61.80
2019-02-28T23:27:13.517Z,62.20
2019-02-28T23:29:49.586Z,62.30
2019-02-28T23:32:34.033Z,62.80
2019-02-28T23:35:07.177Z,63.30
2019-02-28T23:37:37.053Z,64.10
2019-02-28T23:40:07.000Z,66.40
2019-02-28T23:42:37.270Z,67.60
2019-02-28T23:45:07.308Z,68.50
2019-02-28T23:47:37.189Z,69.70
2019-02-28T23:50:07.835Z,70.90
2019-02-28T23:52:37.975Z,72.40
2019-02-28T23:55:07.846Z,74.60
2019-02-28T23:57:37.708Z,74.70
